createdAt,value
2022-11-05T00:00:41.519Z,11.77
2022-11-05T00:06:04.449Z,12.82
2022-11-05T00:11:09.760Z,11.63
2022-11-05T00:16:33.421Z,13.75
2022-11-05T00:21:55.913Z,10.63
2022-11-05T00:26:58.959Z,11.32
2022-11-05T00:32:03.823Z,9.15
2022-11-05T00:37:06.813Z,7.67
2022-11-05T00:42:28.175Z,9.93
2022-11-05T00:47:52.784Z,9.32
2022-11-05T00:52:57.038Z,9.45
2022-11-05T00:58:00.555Z,8.07
2022-11-05T01:03:05.125Z,9.85
2022-11-05T01:08:10.289Z,7.38
2022-11-05T01:13:14.388Z,9.00
2022-11-05T01:18:18.012Z,8.23
2022-11-05T01:23:21.551Z,7.78
2022-11-05T01:28:24.624Z,8.70
2022-11-05T01:33:27.496Z,10.23
2022-11-05T01:38:33.223Z,10.03
2022-11-05T01:43:54.631Z,9.00
2022-11-05T01:49:03.326Z,9.45
2022-11-05T01:54:11.191Z,8.82
2022-11-05T01:59:20.361Z,8.30
2022-11-05T02:04:35.608Z,8.43
2022-11-05T02:09:57.292Z,9.35
2022-11-05T02:15:01.078Z,9.82
2022-11-05T02:20:23.556Z,9.93
2022-11-05T02:25:47.759Z,9.50
2022-11-05T02:30:59.406Z,9.10
2022-11-05T02:36:11.759Z,8.55
2022-11-05T02:41:15.067Z,7.72
2022-11-05T02:46:17.870Z,8.32
2022-11-05T02:51:25.395Z,7.50
2022-11-05T02:56:31.873Z,9.23
2022-11-05T03:01:39.655Z,7.78
2022-11-05T03:07:02.236Z,7.88
2022-11-05T03:12:11.432Z,8.00
2022-11-05T03:17:33.415Z,8.63
2022-11-05T03:22:42.716Z,8.63
2022-11-05T03:27:56.121Z,7.35
2022-11-05T03:33:01.767Z,7.65
2022-11-05T03:38:11.087Z,7.32
2022-11-05T03:43:16.064Z,7.95
2022-11-05T03:48:20.425Z,7.00
2022-11-05T03:53:26.835Z,6.57
2022-11-05T03:58:30.308Z,6.88
2022-11-05T04:03:39.113Z,7.13
2022-11-05T04:09:00.446Z,7.30
2022-11-05T04:14:03.364Z,6.97
2022-11-05T04:19:06.237Z,6.70
2022-11-05T04:24:09.389Z,7.30
2022-11-05T04:29:31.338Z,7.18
2022-11-05T04:34:34.201Z,6.95
2022-11-05T04:39:45.266Z,6.60
2022-11-05T04:44:48.297Z,6.35
2022-11-05T04:49:51.200Z,6.22
2022-11-05T04:54:53.976Z,6.88
2022-11-05T04:59:58.377Z,6.22
2022-11-05T05:05:02.083Z,6.18
2022-11-05T05:10:24.090Z,6.63
2022-11-05T05:15:26.930Z,6.40
2022-11-05T05:20:48.361Z,7.50
2022-11-05T05:25:51.500Z,5.93
2022-11-05T05:30:58.626Z,6.45
2022-11-05T05:36:05.848Z,6.40
2022-11-05T05:41:12.872Z,7.10
2022-11-05T05:46:16.673Z,6.70
2022-11-05T05:51:21.073Z,6.95
2022-11-05T05:56:23.892Z,7.25
2022-11-05T06:01:27.433Z,6.55
2022-11-05T06:06:30.659Z,8.90
2022-11-05T06:11:33.527Z,9.85
2022-11-05T06:16:36.583Z,7.43
2022-11-05T06:21:39.933Z,7.18
2022-11-05T06:26:43.455Z,8.48
2022-11-05T06:31:46.563Z,6.72
2022-11-05T06:36:49.401Z,8.48
2022-11-05T06:47:16.118Z,9.67
2022-11-05T06:52:19.266Z,9.88
2022-11-05T06:57:22.518Z,10.73
2022-11-05T07:02:25.467Z,9.50
2022-11-05T07:07:28.469Z,8.30
2022-11-05T07:12:32.867Z,7.20
2022-11-05T07:17:35.888Z,8.70
2022-11-05T07:22:40.834Z,10.52
2022-11-05T07:32:48.027Z,16.10
2022-11-05T07:37:51.950Z,21.98
2022-11-05T07:42:56.753Z,29.90
2022-11-05T07:48:04.075Z,35.17
2022-11-05T07:53:17.031Z,33.15
2022-11-05T07:58:22.343Z,37.20
2022-11-05T08:03:25.273Z,38.67
2022-11-05T08:08:29.207Z,40.20
2022-11-05T08:13:35.344Z,46.40
2022-11-05T08:18:38.240Z,47.78
2022-11-05T08:23:42.693Z,52.53
2022-11-05T08:28:46.180Z,58.50
2022-11-05T08:33:50.005Z,59.70
2022-11-05T08:38:52.905Z,60.20
2022-11-05T08:43:56.816Z,60.38
2022-11-05T08:48:59.683Z,59.63
2022-11-05T08:54:02.541Z,59.15
2022-11-05T08:59:11.885Z,59.00
2022-11-05T09:04:14.860Z,63.70
2022-11-05T09:09:17.672Z,57.08
2022-11-05T09:14:21.010Z,64.60
2022-11-05T09:19:24.066Z,63.25
2022-11-05T09:24:26.995Z,62.78
2022-11-05T09:29:29.875Z,63.58
2022-11-05T09:34:33.593Z,39.15
2022-11-05T09:39:36.409Z,45.92
2022-11-05T09:45:05.775Z,55.17
2022-11-05T09:50:09.995Z,52.13
2022-11-05T09:55:35.954Z,50.28
2022-11-05T10:00:40.235Z,54.53
2022-11-05T10:05:43.644Z,44.78
2022-11-05T10:10:55.958Z,44.22
2022-11-05T10:16:01.849Z,47.13
2022-11-05T10:21:05.274Z,43.17
2022-11-05T10:26:12.575Z,48.05
2022-11-05T10:31:23.075Z,30.10
2022-11-05T10:36:32.238Z,37.15
2022-11-05T10:41:47.114Z,30.15
2022-11-05T10:47:08.752Z,34.15
2022-11-05T10:52:30.502Z,30.38
2022-11-05T10:57:37.935Z,27.25
2022-11-05T11:03:00.732Z,30.50
2022-11-05T11:08:06.447Z,26.33
2022-11-05T11:13:20.324Z,24.35
2022-11-05T11:18:29.572Z,25.23
2022-11-05T11:23:37.433Z,27.83
2022-11-05T11:28:48.947Z,32.17
2022-11-05T11:33:56.475Z,25.92
2022-11-05T11:39:01.834Z,21.38
2022-11-05T11:44:08.433Z,13.88
2022-11-05T11:49:31.099Z,16.77
2022-11-05T11:54:37.512Z,16.58
2022-11-05T12:00:07.370Z,15.65
2022-11-05T12:05:09.665Z,15.45
2022-11-05T12:10:22.715Z,17.55
2022-11-05T12:15:34.825Z,15.45
2022-11-05T12:20:37.586Z,15.35
2022-11-05T12:25:40.419Z,12.63
2022-11-05T12:30:49.620Z,13.00
2022-11-05T12:36:00.322Z,10.32
2022-11-05T12:41:23.349Z,12.55
2022-11-05T12:46:42.719Z,12.15
2022-11-05T12:52:22.561Z,10.40
2022-11-05T12:57:26.186Z,11.43
2022-11-05T13:02:34.150Z,10.07
2022-11-05T13:07:41.977Z,11.27
2022-11-05T13:12:45.476Z,11.02
2022-11-05T13:17:52.906Z,9.93
2022-11-05T13:23:07.204Z,9.35
2022-11-05T13:28:29.457Z,9.55
2022-11-05T13:33:40.097Z,8.20
2022-11-05T13:39:00.689Z,8.98
2022-11-05T13:44:33.146Z,8.80
2022-11-05T13:49:55.794Z,8.30
2022-11-05T13:55:16.283Z,7.43
2022-11-05T14:00:22.381Z,8.93
2022-11-05T14:05:27.880Z,8.30
2022-11-05T14:10:33.275Z,7.68
2022-11-05T14:15:36.762Z,8.18
2022-11-05T14:20:45.200Z,7.00
2022-11-05T14:25:53.783Z,8.02
2022-11-05T14:30:56.715Z,9.23
2022-11-05T14:36:18.325Z,7.50
2022-11-05T14:41:23.904Z,8.45
2022-11-05T14:46:40.358Z,9.13
2022-11-05T14:51:48.773Z,8.80
2022-11-05T14:56:58.825Z,8.90
2022-11-05T15:02:04.773Z,9.10
2022-11-05T15:07:08.423Z,9.60
2022-11-05T15:12:11.832Z,8.77
2022-11-05T15:17:32.157Z,8.63
2022-11-05T15:22:43.558Z,8.73
2022-11-05T15:27:46.773Z,9.52
2022-11-05T15:32:51.694Z,10.40
2022-11-05T15:38:01.779Z,8.88
2022-11-05T15:43:10.112Z,10.75
2022-11-05T15:48:14.328Z,11.88
2022-11-05T15:53:44.057Z,11.02
2022-11-05T15:58:47.066Z,11.52
2022-11-05T16:03:51.694Z,10.45
2022-11-05T16:08:55.246Z,11.02
2022-11-05T16:14:19.120Z,11.07
2022-11-05T16:19:42.662Z,12.23
2022-11-05T16:25:21.294Z,12.15
2022-11-05T16:30:24.482Z,11.75
2022-11-05T16:35:29.988Z,10.77
2022-11-05T16:40:51.340Z,10.35
2022-11-05T16:45:57.325Z,8.50
2022-11-05T16:51:01.343Z,9.70
2022-11-05T16:56:04.987Z,6.68
2022-11-05T17:01:12.714Z,9.63
2022-11-05T17:06:16.824Z,8.93
2022-11-05T17:11:21.964Z,9.90
2022-11-05T17:16:26.338Z,10.02
2022-11-05T17:21:29.272Z,10.32
2022-11-05T17:26:32.291Z,8.55
2022-11-05T17:31:35.131Z,8.02
2022-11-05T17:36:37.954Z,8.95
2022-11-05T17:41:40.859Z,9.90
2022-11-05T17:46:44.607Z,9.35
2022-11-05T17:51:47.527Z,10.30
2022-11-05T17:56:52.457Z,9.10
2022-11-05T18:01:55.361Z,9.00
2022-11-05T18:06:58.302Z,9.65
2022-11-05T18:12:01.383Z,4.72
2022-11-05T18:17:04.679Z,8.80
2022-11-05T18:22:07.559Z,8.85
2022-11-05T18:27:11.331Z,9.32
2022-11-05T18:32:14.313Z,9.68
2022-11-05T18:37:17.113Z,9.52
2022-11-05T18:42:23.591Z,8.93
2022-11-05T18:47:45.046Z,9.83
2022-11-05T18:52:48.126Z,9.95
2022-11-05T18:57:51.217Z,9.98
2022-11-05T19:02:56.010Z,8.27
2022-11-05T19:07:59.180Z,11.65
2022-11-05T19:13:02.237Z,9.23
2022-11-05T19:18:08.100Z,8.27
2022-11-05T19:23:11.148Z,6.85
2022-11-05T19:28:16.032Z,9.75
2022-11-05T19:33:18.937Z,8.32
2022-11-05T19:38:21.861Z,9.45
2022-11-05T19:43:24.784Z,6.15
2022-11-05T19:48:27.746Z,9.02
2022-11-05T19:53:30.787Z,9.15
2022-11-05T19:58:34.301Z,8.80
2022-11-05T20:03:37.869Z,9.90
2022-11-05T20:08:59.830Z,9.77
2022-11-05T20:14:07.922Z,6.57
2022-11-05T20:19:12.200Z,6.90
2022-11-05T20:24:22.372Z,10.05
2022-11-05T20:29:33.867Z,4.40
2022-11-05T20:34:38.342Z,9.25
2022-11-05T20:39:41.204Z,9.13
2022-11-05T20:44:44.060Z,7.80
2022-11-05T20:49:46.901Z,7.85
2022-11-05T20:54:50.124Z,7.85
2022-11-05T20:59:55.610Z,6.27
2022-11-05T21:04:59.657Z,6.72
2022-11-05T21:10:03.982Z,10.50
2022-11-05T21:15:07.272Z,10.33
2022-11-05T21:20:10.407Z,11.45
2022-11-05T21:25:14.328Z,8.95
2022-11-05T21:30:17.130Z,8.70
2022-11-05T21:35:20.755Z,10.20
2022-11-05T21:40:23.668Z,11.20
2022-11-05T21:45:26.728Z,8.50
2022-11-05T21:50:50.130Z,9.88
2022-11-05T21:56:11.591Z,11.45
2022-11-05T22:01:14.697Z,8.70
2022-11-05T22:06:17.680Z,11.20
2022-11-05T22:11:20.470Z,6.18
2022-11-05T22:16:23.344Z,9.88
2022-11-05T22:21:26.201Z,9.63
2022-11-05T22:26:29.059Z,8.93
2022-11-05T22:31:36.239Z,10.10
2022-11-05T22:36:41.862Z,9.80
2022-11-05T22:41:44.888Z,8.80
2022-11-05T22:46:47.760Z,7.68
2022-11-05T22:51:51.629Z,7.47
2022-11-05T22:57:13.157Z,9.45
2022-11-05T23:02:16.104Z,11.13
2022-11-05T23:07:37.643Z,10.35
2022-11-05T23:12:42.724Z,7.95
2022-11-05T23:18:04.095Z,9.63
2022-11-05T23:23:29.341Z,7.10
2022-11-05T23:28:32.100Z,9.02
2022-11-05T23:33:35.575Z,8.35
2022-11-05T23:38:38.465Z,9.77
2022-11-05T23:44:00.176Z,10.00
2022-11-05T23:49:03.057Z,7.63
2022-11-05T23:54:06.942Z,8.18
2022-11-05T23:59:12.650Z,6.53
